createdAt,value
2018-06-15T00:01:42.740Z,8.57
2018-06-15T00:04:10.046Z,8.07
2018-06-15T00:06:37.359Z,7.90
2018-06-15T00:09:06.182Z,8.23
2018-06-15T00:11:33.471Z,8.27
2018-06-15T00:14:00.813Z,8.17
2018-06-15T00:16:28.081Z,7.47
2018-06-15T00:18:55.434Z,8.30
2018-06-15T00:21:22.768Z,8.33
2018-06-15T00:23:50.083Z,7.60
2018-06-15T00:26:17.445Z,8.33
2018-06-15T00:28:44.812Z,7.87
2018-06-15T00:31:12.112Z,8.50
2018-06-15T00:33:39.397Z,7.63
2018-06-15T00:36:06.731Z,7.70
2018-06-15T00:38:34.081Z,7.83
2018-06-15T00:41:01.407Z,7.63
2018-06-15T00:43:28.745Z,8.50
2018-06-15T00:45:56.062Z,8.00
2018-06-15T00:48:23.413Z,7.90
2018-06-15T00:50:50.766Z,8.17
2018-06-15T00:53:18.108Z,7.57
2018-06-15T00:55:45.453Z,7.40
2018-06-15T00:58:12.759Z,7.83
2018-06-15T01:00:40.140Z,7.97
2018-06-15T01:03:08.213Z,8.87
2018-06-15T01:05:35.544Z,7.87
2018-06-15T01:08:02.875Z,8.70
2018-06-15T01:10:30.233Z,8.33
2018-06-15T01:12:57.530Z,8.17
2018-06-15T01:15:24.863Z,8.33
2018-06-15T01:17:52.226Z,8.23
2018-06-15T01:20:19.701Z,7.83
2018-06-15T01:22:46.985Z,8.70
2018-06-15T01:25:14.279Z,9.00
2018-06-15T01:27:41.629Z,8.50
2018-06-15T01:30:08.962Z,7.97
2018-06-15T01:32:36.296Z,8.27
2018-06-15T01:35:03.620Z,8.50
2018-06-15T01:37:31.018Z,9.10
2018-06-15T01:39:58.308Z,9.57
2018-06-15T01:42:25.660Z,8.50
2018-06-15T01:44:53.025Z,9.40
2018-06-15T01:47:20.315Z,9.20
2018-06-15T01:49:47.634Z,8.73
2018-06-15T01:52:14.911Z,9.40
2018-06-15T01:54:42.268Z,9.10
2018-06-15T01:57:09.552Z,8.50
2018-06-15T01:59:36.847Z,8.03
2018-06-15T02:02:04.182Z,9.77
2018-06-15T02:04:31.525Z,8.73
2018-06-15T02:06:58.812Z,8.67
2018-06-15T02:09:26.141Z,8.47
2018-06-15T02:11:53.503Z,8.13
2018-06-15T02:14:20.825Z,9.37
2018-06-15T02:16:48.110Z,9.60
2018-06-15T02:19:15.461Z,8.20
2018-06-15T02:21:42.793Z,7.67
2018-06-15T02:24:10.115Z,7.93
2018-06-15T02:26:37.470Z,8.63
2018-06-15T02:29:04.923Z,8.57
2018-06-15T02:31:32.309Z,8.83
2018-06-15T02:33:59.638Z,8.57
2018-06-15T02:36:27.044Z,7.90
2018-06-15T02:38:54.336Z,8.37
2018-06-15T02:41:21.720Z,8.83
2018-06-15T02:43:49.064Z,8.20
2018-06-15T02:46:16.654Z,8.17
2018-06-15T02:48:43.957Z,8.97
2018-06-15T02:51:11.325Z,8.67
2018-06-15T02:53:38.652Z,9.10
2018-06-15T02:56:06.028Z,8.87
2018-06-15T02:58:34.201Z,8.90
2018-06-15T03:01:01.514Z,9.17
2018-06-15T03:03:28.885Z,8.57
2018-06-15T03:05:56.269Z,9.20
2018-06-15T03:08:23.577Z,9.17
2018-06-15T03:10:51.250Z,8.90
2018-06-15T03:13:18.608Z,8.10
2018-06-15T03:15:45.992Z,8.77
2018-06-15T03:18:13.338Z,7.87
2018-06-15T03:20:40.667Z,8.63
2018-06-15T03:23:08.047Z,8.60
2018-06-15T03:25:35.369Z,9.47
2018-06-15T03:28:02.735Z,9.10
2018-06-15T03:30:30.097Z,8.87
2018-06-15T03:32:57.434Z,9.87
2018-06-15T03:35:24.819Z,8.47
2018-06-15T03:37:52.144Z,8.53
2018-06-15T03:40:19.478Z,9.00
2018-06-15T03:42:46.887Z,7.73
2018-06-15T03:45:14.228Z,8.63
2018-06-15T03:47:41.583Z,8.03
2018-06-15T03:50:08.880Z,8.87
2018-06-15T03:52:36.200Z,9.17
2018-06-15T03:55:03.593Z,9.90
2018-06-15T03:57:31.206Z,9.43
2018-06-15T03:59:58.499Z,8.77
2018-06-15T04:02:25.813Z,11.03
2018-06-15T04:04:53.123Z,10.20
2018-06-15T04:07:20.448Z,9.83
2018-06-15T04:09:47.749Z,9.93
2018-06-15T04:12:15.071Z,9.90
2018-06-15T04:14:43.401Z,9.90
2018-06-15T04:17:10.741Z,9.17
2018-06-15T04:19:38.411Z,8.93
2018-06-15T04:22:05.769Z,9.53
2018-06-15T04:24:33.153Z,9.07
2018-06-15T04:27:00.471Z,8.57
2018-06-15T04:29:27.876Z,8.30
2018-06-15T04:31:55.433Z,9.20
2018-06-15T04:34:22.800Z,9.90
2018-06-15T04:36:50.143Z,8.80
2018-06-15T04:39:17.529Z,9.00
2018-06-15T04:41:44.992Z,8.97
2018-06-15T04:44:12.326Z,8.40
2018-06-15T04:46:39.758Z,9.50
2018-06-15T04:49:07.096Z,9.07
2018-06-15T04:51:34.468Z,9.93
2018-06-15T04:54:01.874Z,8.93
2018-06-15T04:56:29.197Z,9.17
2018-06-15T04:58:56.548Z,9.47
2018-06-15T05:01:24.083Z,8.97
2018-06-15T05:03:51.597Z,9.80
2018-06-15T05:06:19.398Z,9.33
2018-06-15T05:08:47.045Z,9.70
2018-06-15T05:11:14.422Z,9.93
2018-06-15T05:13:41.841Z,9.30
2018-06-15T05:16:09.163Z,8.73
2018-06-15T05:18:36.714Z,8.13
2018-06-15T05:21:04.047Z,8.80
2018-06-15T05:23:31.457Z,8.27
2018-06-15T05:25:58.832Z,8.27
2018-06-15T05:28:26.675Z,8.07
2018-06-15T05:30:58.962Z,8.67
2018-06-15T05:33:27.665Z,8.30
2018-06-15T05:35:55.026Z,8.90
2018-06-15T05:38:22.490Z,9.20
2018-06-15T05:40:50.003Z,8.80
2018-06-15T05:43:17.361Z,8.27
2018-06-15T05:45:44.786Z,10.73
2018-06-15T05:48:12.211Z,9.50
2018-06-15T05:50:39.542Z,8.63
2018-06-15T05:53:06.949Z,8.80
2018-06-15T05:55:34.476Z,8.70
2018-06-15T05:58:01.881Z,9.57
2018-06-15T06:00:30.114Z,8.83
2018-06-15T06:02:57.500Z,8.40
2018-06-15T06:05:24.861Z,9.03
2018-06-15T06:07:52.250Z,9.50
2018-06-15T06:10:19.588Z,8.70
2018-06-15T06:12:47.141Z,8.17
2018-06-15T06:15:14.502Z,7.30
2018-06-15T06:17:42.369Z,7.07
2018-06-15T06:20:10.775Z,7.53
2018-06-15T06:22:38.343Z,7.70
2018-06-15T06:25:05.911Z,7.07
2018-06-15T06:27:33.586Z,6.30
2018-06-15T06:30:01.004Z,6.97
2018-06-15T06:32:28.459Z,6.90
2018-06-15T06:34:55.987Z,7.20
2018-06-15T06:37:23.520Z,7.07
2018-06-15T06:39:50.878Z,6.60
2018-06-15T06:42:18.316Z,7.30
2018-06-15T06:44:46.086Z,6.70
2018-06-15T06:47:13.394Z,6.30
2018-06-15T06:49:40.954Z,6.20
2018-06-15T06:52:08.427Z,5.73
2018-06-15T06:54:35.834Z,7.20
2018-06-15T06:57:03.817Z,6.67
2018-06-15T06:59:31.191Z,6.30
2018-06-15T07:01:58.511Z,6.00
2018-06-15T07:04:25.902Z,6.27
2018-06-15T07:06:53.263Z,6.60
2018-06-15T07:09:20.637Z,6.27
2018-06-15T07:11:48.017Z,5.37
2018-06-15T07:14:15.502Z,6.93
2018-06-15T07:16:42.871Z,5.97
2018-06-15T07:19:10.350Z,5.87
2018-06-15T07:21:37.817Z,5.97
2018-06-15T07:24:05.270Z,5.97
2018-06-15T07:26:32.748Z,5.57
2018-06-15T07:29:00.065Z,5.53
2018-06-15T07:31:27.482Z,6.10
2018-06-15T07:33:55.175Z,4.67
2018-06-15T07:36:22.572Z,5.00
2018-06-15T07:38:49.983Z,4.10
2018-06-15T07:41:17.365Z,4.97
2018-06-15T07:43:44.978Z,4.80
2018-06-15T07:46:12.362Z,5.70
2018-06-15T07:48:39.677Z,5.40
2018-06-15T07:51:07.030Z,5.00
2018-06-15T07:53:34.562Z,5.10
2018-06-15T07:56:01.944Z,4.90
2018-06-15T07:58:29.298Z,5.07
2018-06-15T08:00:56.716Z,5.10
2018-06-15T08:03:24.077Z,4.90
2018-06-15T08:05:51.463Z,4.83
2018-06-15T08:08:18.902Z,5.10
2018-06-15T08:10:46.355Z,4.70
2018-06-15T08:13:13.689Z,5.20
2018-06-15T08:15:41.105Z,4.93
2018-06-15T08:18:08.476Z,5.47
2018-06-15T08:20:35.857Z,4.67
2018-06-15T08:23:03.378Z,5.13
2018-06-15T08:25:30.755Z,4.80
2018-06-15T08:27:58.134Z,4.97
2018-06-15T08:30:25.542Z,4.70
2018-06-15T08:32:52.906Z,5.33
2018-06-15T08:35:20.369Z,5.07
2018-06-15T08:37:47.699Z,5.20
2018-06-15T08:40:15.070Z,5.00
2018-06-15T08:42:42.566Z,5.60
2018-06-15T08:45:09.937Z,5.00
2018-06-15T08:47:37.273Z,5.30
2018-06-15T08:50:04.644Z,4.63
2018-06-15T08:52:31.985Z,3.80
2018-06-15T08:54:59.324Z,4.40
2018-06-15T08:57:26.718Z,4.10
2018-06-15T08:59:54.134Z,4.20
2018-06-15T09:02:21.498Z,4.20
2018-06-15T09:04:48.937Z,4.13
2018-06-15T09:07:16.290Z,4.10
2018-06-15T09:09:43.648Z,4.10
2018-06-15T09:12:11.097Z,4.00
2018-06-15T09:14:38.621Z,4.10
2018-06-15T09:17:06.034Z,4.30
2018-06-15T09:19:33.399Z,4.60
2018-06-15T09:22:00.762Z,4.03
2018-06-15T09:24:28.091Z,4.60
2018-06-15T09:26:55.483Z,4.60
2018-06-15T09:29:22.821Z,4.40
2018-06-15T09:31:50.192Z,5.13
2018-06-15T09:34:17.569Z,4.73
2018-06-15T09:36:45.227Z,4.83
2018-06-15T09:39:12.620Z,4.40
2018-06-15T09:41:41.236Z,4.90
2018-06-15T09:44:08.577Z,4.00
2018-06-15T09:46:36.024Z,4.40
2018-06-15T09:49:03.375Z,4.20
2018-06-15T09:51:30.741Z,4.33
2018-06-15T09:53:58.153Z,3.83
2018-06-15T09:56:25.454Z,3.30
2018-06-15T09:58:54.653Z,3.40
2018-06-15T10:01:22.112Z,3.37
2018-06-15T10:03:50.741Z,3.53
2018-06-15T10:06:18.141Z,3.27
2018-06-15T10:08:50.340Z,3.60
2018-06-15T10:11:17.811Z,3.70
2018-06-15T10:13:45.174Z,3.97
2018-06-15T10:16:12.576Z,3.43
2018-06-15T10:18:39.978Z,3.63
2018-06-15T10:21:07.307Z,3.77
2018-06-15T10:23:34.649Z,4.80
2018-06-15T10:26:01.981Z,4.83
2018-06-15T10:28:29.462Z,4.30
2018-06-15T10:30:56.826Z,3.97
2018-06-15T10:33:24.262Z,4.47
2018-06-15T10:35:51.665Z,4.77
2018-06-15T10:38:19.089Z,5.10
2018-06-15T10:40:46.515Z,5.10
2018-06-15T10:43:13.907Z,4.47
2018-06-15T10:45:41.276Z,4.80
2018-06-15T10:48:08.657Z,4.93
2018-06-15T10:50:36.091Z,5.20
2018-06-15T10:53:03.703Z,5.23
2018-06-15T10:55:31.071Z,5.00
2018-06-15T10:57:58.496Z,4.90
2018-06-15T11:00:26.845Z,5.10
2018-06-15T11:02:54.261Z,5.27
2018-06-15T11:05:21.691Z,4.50
2018-06-15T11:07:49.024Z,4.30
2018-06-15T11:10:16.442Z,4.60
2018-06-15T11:12:43.977Z,4.10
2018-06-15T11:15:11.358Z,4.87
2018-06-15T11:17:38.901Z,4.30
2018-06-15T11:20:06.704Z,4.60
2018-06-15T11:22:34.316Z,4.10
2018-06-15T11:25:01.694Z,3.93
2018-06-15T11:27:29.048Z,4.70
2018-06-15T11:29:56.503Z,4.43
2018-06-15T11:32:23.906Z,5.13
2018-06-15T11:34:51.259Z,4.73
2018-06-15T11:37:18.602Z,4.30
2018-06-15T11:39:46.373Z,4.50
2018-06-15T11:42:13.752Z,4.30
2018-06-15T11:44:41.184Z,5.33
2018-06-15T11:47:08.587Z,4.30
2018-06-15T11:49:36.006Z,4.90
2018-06-15T11:52:03.478Z,4.93
2018-06-15T11:54:30.904Z,4.70
2018-06-15T11:56:58.268Z,5.10
2018-06-15T11:59:25.684Z,4.53
2018-06-15T12:01:53.126Z,4.93
2018-06-15T12:04:20.412Z,5.00
2018-06-15T12:06:47.862Z,4.70
2018-06-15T12:09:15.309Z,4.93
2018-06-15T12:11:42.663Z,4.90
2018-06-15T12:14:10.309Z,4.87
2018-06-15T12:16:37.700Z,4.20
2018-06-15T12:19:05.101Z,4.50
2018-06-15T12:21:32.456Z,5.07
2018-06-15T12:23:59.907Z,5.17
2018-06-15T12:26:27.345Z,5.07
2018-06-15T12:28:54.740Z,4.63
2018-06-15T12:31:22.164Z,5.03
2018-06-15T12:33:49.528Z,4.80
2018-06-15T12:36:16.915Z,4.80
2018-06-15T12:38:44.314Z,5.10
2018-06-15T12:41:11.820Z,6.00
2018-06-15T12:43:39.399Z,4.57
2018-06-15T12:46:06.816Z,4.60
2018-06-15T12:48:34.151Z,4.70
2018-06-15T12:51:01.598Z,5.27
2018-06-15T12:53:30.220Z,5.10
2018-06-15T12:55:57.625Z,4.80
2018-06-15T12:58:25.018Z,4.90
2018-06-15T13:00:52.387Z,5.13
2018-06-15T13:03:19.716Z,4.53
2018-06-15T13:05:47.042Z,4.93
2018-06-15T13:08:14.479Z,4.17
2018-06-15T13:10:41.898Z,5.33
2018-06-15T13:13:09.333Z,5.30
2018-06-15T13:15:36.641Z,4.77
2018-06-15T13:18:03.989Z,5.13
2018-06-15T13:20:33.169Z,4.90
2018-06-15T13:23:03.472Z,5.13
2018-06-15T13:25:30.899Z,5.23
2018-06-15T13:27:58.429Z,5.23
2018-06-15T13:30:29.108Z,4.70
2018-06-15T13:32:58.494Z,5.60
2018-06-15T13:35:25.761Z,5.70
2018-06-15T13:37:55.645Z,4.90
2018-06-15T13:40:23.080Z,5.40
2018-06-15T13:42:50.509Z,5.60
2018-06-15T13:45:17.869Z,5.83
2018-06-15T13:47:45.305Z,5.90
2018-06-15T13:50:15.539Z,5.23
2018-06-15T13:52:42.908Z,5.23
2018-06-15T13:55:10.206Z,5.00
2018-06-15T13:57:37.605Z,5.27
2018-06-15T14:00:05.025Z,4.90
2018-06-15T14:02:33.184Z,4.87
2018-06-15T14:05:00.701Z,5.00
2018-06-15T14:07:28.104Z,5.33
2018-06-15T14:09:55.498Z,5.17
2018-06-15T14:12:22.949Z,5.10
2018-06-15T14:14:51.457Z,5.63
2018-06-15T14:17:18.846Z,5.97
2018-06-15T14:19:46.247Z,4.60
2018-06-15T14:22:13.631Z,5.20
2018-06-15T14:24:41.062Z,5.47
2018-06-15T14:27:08.346Z,5.27
2018-06-15T14:29:35.833Z,5.57
2018-06-15T14:32:03.225Z,4.93
2018-06-15T14:34:31.473Z,6.23
2018-06-15T14:36:59.397Z,5.73
2018-06-15T14:39:26.762Z,5.57
2018-06-15T14:41:54.201Z,5.40
2018-06-15T14:44:21.581Z,5.70
2018-06-15T14:46:49.382Z,5.80
2018-06-15T14:49:17.269Z,6.20
2018-06-15T14:51:46.158Z,6.07
2018-06-15T14:54:13.969Z,4.90
2018-06-15T14:56:41.498Z,5.60
2018-06-15T14:59:10.563Z,6.20
2018-06-15T15:01:38.394Z,4.90
2018-06-15T15:04:05.781Z,5.87
2018-06-15T15:06:33.192Z,5.53
2018-06-15T15:09:01.355Z,5.13
2018-06-15T15:11:28.730Z,5.57
2018-06-15T15:13:56.212Z,5.60
2018-06-15T15:16:23.768Z,5.40
2018-06-15T15:18:51.445Z,5.43
2018-06-15T15:21:18.801Z,5.43
2018-06-15T15:23:46.137Z,5.30
2018-06-15T15:26:13.998Z,5.43
2018-06-15T15:28:41.288Z,5.70
2018-06-15T15:31:08.662Z,5.33
2018-06-15T15:33:35.975Z,5.67
2018-06-15T15:36:03.562Z,5.37
2018-06-15T15:38:30.988Z,5.13
2018-06-15T15:40:58.381Z,5.23
2018-06-15T15:43:25.753Z,5.80
2018-06-15T15:45:53.143Z,4.80
2018-06-15T15:48:20.499Z,5.67
2018-06-15T15:50:47.801Z,5.40
2018-06-15T15:53:15.220Z,5.20
2018-06-15T15:55:42.559Z,5.20
2018-06-15T15:58:09.909Z,5.17
2018-06-15T16:00:37.237Z,5.10
2018-06-15T16:03:04.600Z,5.73
2018-06-15T16:05:32.053Z,5.50
2018-06-15T16:07:59.473Z,5.43
2018-06-15T16:10:27.057Z,5.43
2018-06-15T16:12:54.613Z,5.23
2018-06-15T16:15:22.139Z,5.30
2018-06-15T16:17:50.250Z,6.40
2018-06-15T16:20:17.546Z,5.37
2018-06-15T16:22:44.857Z,6.33
2018-06-15T16:25:12.804Z,6.17
2018-06-15T16:27:40.134Z,5.40
2018-06-15T16:30:07.522Z,4.90
2018-06-15T16:32:34.989Z,5.90
2018-06-15T16:35:05.976Z,5.63
2018-06-15T16:37:33.947Z,5.20
2018-06-15T16:40:01.542Z,5.87
2018-06-15T16:42:29.410Z,5.70
2018-06-15T16:44:57.559Z,6.00
2018-06-15T16:47:24.940Z,5.30
2018-06-15T16:49:52.298Z,5.50
2018-06-15T16:52:19.624Z,5.87
2018-06-15T16:54:47.177Z,5.27
2018-06-15T16:57:14.462Z,5.40
2018-06-15T16:59:41.823Z,5.30
2018-06-15T17:02:09.262Z,5.13
2018-06-15T17:04:36.557Z,5.23
2018-06-15T17:07:03.884Z,5.20
2018-06-15T17:09:31.474Z,4.93
2018-06-15T17:11:58.798Z,5.13
2018-06-15T17:14:26.324Z,5.07
2018-06-15T17:16:53.801Z,6.20
2018-06-15T17:21:54.167Z,5.40
2018-06-15T17:24:21.796Z,5.13
2018-06-15T17:26:49.169Z,5.27
2018-06-15T17:29:16.532Z,6.23
2018-06-15T17:31:43.893Z,5.43
2018-06-15T17:34:11.194Z,5.37
2018-06-15T17:36:43.795Z,6.10
2018-06-15T17:39:11.211Z,5.30
2018-06-15T17:41:41.666Z,5.33
2018-06-15T17:44:15.119Z,6.00
2018-06-15T17:46:43.018Z,5.70
2018-06-15T17:49:10.520Z,5.43
2018-06-15T17:51:37.883Z,5.37
2018-06-15T17:54:05.387Z,5.30
2018-06-15T17:56:32.736Z,5.67
2018-06-15T17:59:00.892Z,5.90
2018-06-15T18:01:28.390Z,5.20
2018-06-15T18:03:55.741Z,5.00
2018-06-15T18:06:24.516Z,5.80
2018-06-15T18:08:52.835Z,5.73
2018-06-15T18:11:20.229Z,5.10
2018-06-15T18:13:47.621Z,6.20
2018-06-15T18:16:15.202Z,5.70
2018-06-15T18:18:42.561Z,6.70
2018-06-15T18:21:09.964Z,7.87
2018-06-15T18:23:37.419Z,7.00
2018-06-15T18:26:04.805Z,6.87
2018-06-15T18:28:32.121Z,6.90
2018-06-15T18:30:59.548Z,7.17
2018-06-15T18:33:27.097Z,5.77
2018-06-15T18:35:54.490Z,5.73
2018-06-15T18:38:21.891Z,5.97
2018-06-15T18:40:49.342Z,6.63
2018-06-15T18:43:16.664Z,6.27
2018-06-15T18:45:44.010Z,5.90
2018-06-15T18:48:11.495Z,5.90
2018-06-15T18:50:38.809Z,6.20
2018-06-15T18:53:06.372Z,6.40
2018-06-15T18:55:33.775Z,6.27
2018-06-15T18:58:01.238Z,6.33
2018-06-15T19:00:28.616Z,6.70
2018-06-15T19:02:55.986Z,6.77
2018-06-15T19:05:23.402Z,6.00
2018-06-15T19:07:50.790Z,6.63
2018-06-15T19:10:18.138Z,6.10
2018-06-15T19:12:45.518Z,6.57
2018-06-15T19:15:12.922Z,6.27
2018-06-15T19:17:40.262Z,6.63
2018-06-15T19:20:07.638Z,6.57
2018-06-15T19:22:35.082Z,6.60
2018-06-15T19:25:02.569Z,7.70
2018-06-15T19:27:29.901Z,6.87
2018-06-15T19:29:57.238Z,6.87
2018-06-15T19:32:24.583Z,6.10
2018-06-15T19:34:51.973Z,6.67
2018-06-15T19:37:19.321Z,6.20
2018-06-15T19:39:46.678Z,6.90
2018-06-15T19:42:13.993Z,7.43
2018-06-15T19:44:41.434Z,6.40
2018-06-15T19:47:08.753Z,7.10
2018-06-15T19:49:36.053Z,6.30
2018-06-15T19:52:03.593Z,6.00
2018-06-15T19:54:30.978Z,6.60
2018-06-15T19:56:58.393Z,6.70
2018-06-15T19:59:25.729Z,6.90
2018-06-15T20:01:53.085Z,6.00
2018-06-15T20:04:20.622Z,6.53
2018-06-15T20:06:47.944Z,6.70
2018-06-15T20:09:15.299Z,6.47
2018-06-15T20:11:42.680Z,6.50
2018-06-15T20:14:10.048Z,6.80
2018-06-15T20:16:37.339Z,6.20
2018-06-15T20:19:04.703Z,6.30
2018-06-15T20:21:32.009Z,6.43
2018-06-15T20:23:59.562Z,7.73
2018-06-15T20:26:26.953Z,6.40
2018-06-15T20:28:54.382Z,6.67
2018-06-15T20:31:21.747Z,6.93
2018-06-15T20:33:49.078Z,7.23
2018-06-15T20:36:16.655Z,6.13
2018-06-15T20:38:44.021Z,6.50
2018-06-15T20:41:12.089Z,6.90
2018-06-15T20:43:39.447Z,6.50
2018-06-15T20:46:06.749Z,6.70
2018-06-15T20:48:34.071Z,6.77
2018-06-15T20:51:01.429Z,6.50
2018-06-15T20:53:28.751Z,6.57
2018-06-15T20:55:56.091Z,5.90
2018-06-15T20:58:23.474Z,6.40
2018-06-15T21:00:50.813Z,7.00
2018-06-15T21:03:18.123Z,7.10
2018-06-15T21:05:45.429Z,6.90
2018-06-15T21:08:12.800Z,6.20
2018-06-15T21:10:40.212Z,6.97
2018-06-15T21:13:07.779Z,7.40
2018-06-15T21:15:35.131Z,7.00
2018-06-15T21:18:02.585Z,7.80
2018-06-15T21:20:30.104Z,7.13
2018-06-15T21:22:57.718Z,7.30
2018-06-15T21:25:25.135Z,7.80
2018-06-15T21:27:52.682Z,7.20
2018-06-15T21:30:20.045Z,7.20
2018-06-15T21:32:47.358Z,7.83
2018-06-15T21:35:14.843Z,7.47
2018-06-15T21:37:42.542Z,8.37
2018-06-15T21:40:09.997Z,7.20
2018-06-15T21:42:37.413Z,7.80
2018-06-15T21:45:04.877Z,8.00
2018-06-15T21:47:33.480Z,8.00
2018-06-15T21:50:00.932Z,8.93
2018-06-15T21:52:28.371Z,9.30
2018-06-15T21:54:55.729Z,9.20
2018-06-15T21:57:23.153Z,9.87
2018-06-15T21:59:50.493Z,10.47
2018-06-15T22:02:18.291Z,10.77
2018-06-15T22:04:45.589Z,10.33
2018-06-15T22:07:12.986Z,9.07
2018-06-15T22:09:40.385Z,10.90
2018-06-15T22:12:07.715Z,9.50
2018-06-15T22:14:35.125Z,10.00
2018-06-15T22:17:02.469Z,9.63
2018-06-15T22:19:29.844Z,9.70
2018-06-15T22:21:57.188Z,8.83
2018-06-15T22:24:24.567Z,9.50
2018-06-15T22:26:52.103Z,9.17
2018-06-15T22:29:19.516Z,9.30
2018-06-15T22:31:47.006Z,8.77
2018-06-15T22:34:14.373Z,8.77
2018-06-15T22:36:41.860Z,10.33
2018-06-15T22:39:11.620Z,8.70
2018-06-15T22:41:38.932Z,8.80
2018-06-15T22:44:06.348Z,8.80
2018-06-15T22:46:33.737Z,9.17
2018-06-15T22:49:01.040Z,9.20
2018-06-15T22:51:28.418Z,8.57
2018-06-15T22:53:55.752Z,8.47
2018-06-15T22:56:23.101Z,9.40
2018-06-15T22:58:50.444Z,9.70
2018-06-15T23:01:17.747Z,9.07
2018-06-15T23:03:45.073Z,8.67
2018-06-15T23:06:12.406Z,9.27
2018-06-15T23:08:39.713Z,10.03
2018-06-15T23:11:07.107Z,8.90
2018-06-15T23:13:34.491Z,9.33
2018-06-15T23:16:01.842Z,8.53
2018-06-15T23:18:29.130Z,9.23
2018-06-15T23:20:56.605Z,9.10
2018-06-15T23:23:24.134Z,9.40
2018-06-15T23:25:51.552Z,9.53
2018-06-15T23:28:18.937Z,10.00
2018-06-15T23:30:46.352Z,10.30
2018-06-15T23:33:13.772Z,9.60
2018-06-15T23:35:41.188Z,10.77
2018-06-15T23:38:08.495Z,10.30
2018-06-15T23:40:35.826Z,10.00
2018-06-15T23:43:03.169Z,10.40
2018-06-15T23:45:30.537Z,10.20
2018-06-15T23:47:57.860Z,9.63
2018-06-15T23:50:25.236Z,11.33
2018-06-15T23:52:52.720Z,10.57
2018-06-15T23:55:20.216Z,11.57
2018-06-15T23:57:47.534Z,11.13
